sensor_id;sensor_type;location;lat;lon;timestamp;P1;durP1;ratioP1;P2;durP2;ratioP2
6095;SDS011;25081;42.698;23.298;2023-02-01T00:01:39;5.78;;;5.25;;
6095;SDS011;25081;42.698;23.298;2023-02-01T00:03:50;7.62;;;5.53;;
6095;SDS011;25081;42.698;23.298;2023-02-01T00:06:01;7.95;;;5.85;;
6095;SDS011;25081;42.698;23.298;2023-02-01T00:08:12;6.42;;;5.17;;
6095;SDS011;25081;42.698;23.298;2023-02-01T00:10:22;9.20;;;6.00;;
6095;SDS011;25081;42.698;23.298;2023-02-01T00:12:34;9.63;;;6.60;;
6095;SDS011;25081;42.698;23.298;2023-02-01T00:14:44;7.75;;;6.30;;
6095;SDS011;25081;42.698;23.298;2023-02-01T00:16:56;8.18;;;5.10;;
6095;SDS011;25081;42.698;23.298;2023-02-01T00:19:07;8.10;;;6.25;;
6095;SDS011;25081;42.698;23.298;2023-02-01T00:21:19;8.23;;;5.80;;
6095;SDS011;25081;42.698;23.298;2023-02-01T00:23:31;8.93;;;5.97;;
6095;SDS011;25081;42.698;23.298;2023-02-01T00:25:42;7.37;;;5.10;;
6095;SDS011;25081;42.698;23.298;2023-02-01T00:27:52;8.75;;;6.10;;
6095;SDS011;25081;42.698;23.298;2023-02-01T00:30:04;9.35;;;6.12;;
6095;SDS011;25081;42.698;23.298;2023-02-01T00:32:16;8.45;;;6.10;;
6095;SDS011;25081;42.698;23.298;2023-02-01T00:34:27;9.25;;;6.67;;
6095;SDS011;25081;42.698;23.298;2023-02-01T00:36:37;8.33;;;5.33;;
6095;SDS011;25081;42.698;23.298;2023-02-01T00:38:49;7.03;;;5.72;;
6095;SDS011;25081;42.698;23.298;2023-02-01T00:41:02;8.43;;;5.85;;
6095;SDS011;25081;42.698;23.298;2023-02-01T00:43:13;6.17;;;4.80;;
6095;SDS011;25081;42.698;23.298;2023-02-01T00:45:24;4.25;;;3.20;;
6095;SDS011;25081;42.698;23.298;2023-02-01T00:47:34;5.62;;;3.85;;
6095;SDS011;25081;42.698;23.298;2023-02-01T00:49:45;7.80;;;4.65;;
6095;SDS011;25081;42.698;23.298;2023-02-01T00:51:55;5.65;;;5.05;;
6095;SDS011;25081;42.698;23.298;2023-02-01T00:54:06;9.13;;;5.45;;
6095;SDS011;25081;42.698;23.298;2023-02-01T00:56:16;7.72;;;5.08;;
6095;SDS011;25081;42.698;23.298;2023-02-01T00:58:27;6.33;;;5.45;;
6095;SDS011;25081;42.698;23.298;2023-02-01T01:00:38;6.87;;;5.00;;
6095;SDS011;25081;42.698;23.298;2023-02-01T01:02:48;8.28;;;5.03;;
6095;SDS011;25081;42.698;23.298;2023-02-01T01:04:59;6.70;;;5.20;;
6095;SDS011;25081;42.698;23.298;2023-02-01T01:07:10;7.25;;;5.55;;
6095;SDS011;25081;42.698;23.298;2023-02-01T01:09:20;7.80;;;4.70;;
6095;SDS011;25081;42.698;23.298;2023-02-01T01:11:32;7.50;;;4.95;;
6095;SDS011;25081;42.698;23.298;2023-02-01T01:13:42;6.75;;;5.83;;
6095;SDS011;25081;42.698;23.298;2023-02-01T01:15:52;5.47;;;4.40;;
6095;SDS011;25081;42.698;23.298;2023-02-01T01:18:03;5.72;;;4.08;;
6095;SDS011;25081;42.698;23.298;2023-02-01T01:20:13;7.90;;;4.65;;
6095;SDS011;25081;42.698;23.298;2023-02-01T01:22:25;4.65;;;4.10;;
6095;SDS011;25081;42.698;23.298;2023-02-01T01:24:35;7.10;;;4.62;;
6095;SDS011;25081;42.698;23.298;2023-02-01T01:26:46;7.97;;;4.87;;
6095;SDS011;25081;42.698;23.298;2023-02-01T01:28:58;7.35;;;4.37;;
6095;SDS011;25081;42.698;23.298;2023-02-01T01:31:08;6.78;;;4.45;;
6095;SDS011;25081;42.698;23.298;2023-02-01T01:33:19;8.08;;;4.87;;
6095;SDS011;25081;42.698;23.298;2023-02-01T01:35:30;7.08;;;4.40;;
6095;SDS011;25081;42.698;23.298;2023-02-01T01:37:40;6.05;;;4.58;;
6095;SDS011;25081;42.698;23.298;2023-02-01T01:39:51;8.70;;;5.30;;
6095;SDS011;25081;42.698;23.298;2023-02-01T01:42:01;9.38;;;4.70;;
6095;SDS011;25081;42.698;23.298;2023-02-01T01:46:59;4.58;;;3.85;;
6095;SDS011;25081;42.698;23.298;2023-02-01T01:49:10;4.60;;;4.03;;
6095;SDS011;25081;42.698;23.298;2023-02-01T01:51:20;4.00;;;3.30;;
6095;SDS011;25081;42.698;23.298;2023-02-01T01:53:31;5.67;;;4.15;;
6095;SDS011;25081;42.698;23.298;2023-02-01T01:55:42;5.25;;;4.10;;
6095;SDS011;25081;42.698;23.298;2023-02-01T01:57:54;6.00;;;3.20;;
6095;SDS011;25081;42.698;23.298;2023-02-01T02:00:05;6.42;;;3.42;;
6095;SDS011;25081;42.698;23.298;2023-02-01T02:02:16;6.85;;;3.70;;
6095;SDS011;25081;42.698;23.298;2023-02-01T02:04:27;5.45;;;4.15;;
6095;SDS011;25081;42.698;23.298;2023-02-01T02:06:39;8.53;;;4.60;;
6095;SDS011;25081;42.698;23.298;2023-02-01T02:08:49;5.65;;;3.75;;
6095;SDS011;25081;42.698;23.298;2023-02-01T02:11:00;7.20;;;4.47;;
6095;SDS011;25081;42.698;23.298;2023-02-01T02:13:11;5.55;;;4.75;;
6095;SDS011;25081;42.698;23.298;2023-02-01T02:15:21;4.53;;;3.80;;
6095;SDS011;25081;42.698;23.298;2023-02-01T02:17:33;5.00;;;4.50;;
6095;SDS011;25081;42.698;23.298;2023-02-01T02:25:47;10.43;;;4.58;;
6095;SDS011;25081;42.698;23.298;2023-02-01T02:31:23;5.20;;;4.05;;
6095;SDS011;25081;42.698;23.298;2023-02-01T02:33:39;6.58;;;3.35;;
6095;SDS011;25081;42.698;23.298;2023-02-01T02:35:56;7.30;;;4.15;;
6095;SDS011;25081;42.698;23.298;2023-02-01T02:38:10;6.97;;;4.40;;
6095;SDS011;25081;42.698;23.298;2023-02-01T02:40:22;7.55;;;4.75;;
6095;SDS011;25081;42.698;23.298;2023-02-01T02:42:34;8.30;;;4.50;;
6095;SDS011;25081;42.698;23.298;2023-02-01T02:45:02;6.67;;;4.37;;
6095;SDS011;25081;42.698;23.298;2023-02-01T02:47:31;5.15;;;3.98;;
6095;SDS011;25081;42.698;23.298;2023-02-01T02:49:42;6.15;;;3.42;;
6095;SDS011;25081;42.698;23.298;2023-02-01T02:51:52;7.58;;;4.00;;
6095;SDS011;25081;42.698;23.298;2023-02-01T02:54:21;6.33;;;3.90;;
6095;SDS011;25081;42.698;23.298;2023-02-01T02:56:49;6.58;;;3.40;;
6095;SDS011;25081;42.698;23.298;2023-02-01T02:59:18;16.35;;;4.58;;
6095;SDS011;25081;42.698;23.298;2023-02-01T03:01:45;6.35;;;5.15;;
6095;SDS011;25081;42.698;23.298;2023-02-01T03:04:14;5.65;;;3.70;;
6095;SDS011;25081;42.698;23.298;2023-02-01T03:06:25;6.85;;;4.70;;
6095;SDS011;25081;42.698;23.298;2023-02-01T03:08:36;6.35;;;4.87;;
6095;SDS011;25081;42.698;23.298;2023-02-01T03:10:49;9.08;;;4.85;;
6095;SDS011;25081;42.698;23.298;2023-02-01T03:13:02;6.92;;;4.78;;
6095;SDS011;25081;42.698;23.298;2023-02-01T03:15:13;9.75;;;5.90;;
6095;SDS011;25081;42.698;23.298;2023-02-01T03:17:24;6.17;;;4.87;;
6095;SDS011;25081;42.698;23.298;2023-02-01T03:19:35;12.47;;;4.67;;
6095;SDS011;25081;42.698;23.298;2023-02-01T03:21:46;6.47;;;4.25;;
6095;SDS011;25081;42.698;23.298;2023-02-01T03:23:57;8.48;;;4.65;;
6095;SDS011;25081;42.698;23.298;2023-02-01T03:26:08;5.95;;;4.58;;
6095;SDS011;25081;42.698;23.298;2023-02-01T03:28:18;4.50;;;3.72;;
6095;SDS011;25081;42.698;23.298;2023-02-01T03:30:30;6.80;;;3.77;;
6095;SDS011;25081;42.698;23.298;2023-02-01T03:32:40;5.83;;;4.12;;
6095;SDS011;25081;42.698;23.298;2023-02-01T03:35:07;6.90;;;3.90;;
6095;SDS011;25081;42.698;23.298;2023-02-01T03:37:19;6.95;;;4.25;;
6095;SDS011;25081;42.698;23.298;2023-02-01T03:39:31;8.48;;;4.87;;
6095;SDS011;25081;42.698;23.298;2023-02-01T03:41:41;6.83;;;3.98;;
6095;SDS011;25081;42.698;23.298;2023-02-01T03:43:52;10.55;;;5.05;;
6095;SDS011;25081;42.698;23.298;2023-02-01T03:46:04;7.67;;;4.78;;
6095;SDS011;25081;42.698;23.298;2023-02-01T03:48:14;6.15;;;4.08;;
6095;SDS011;25081;42.698;23.298;2023-02-01T03:50:24;6.47;;;4.92;;
6095;SDS011;25081;42.698;23.298;2023-02-01T03:52:36;5.40;;;4.03;;
6095;SDS011;25081;42.698;23.298;2023-02-01T03:54:46;6.28;;;4.08;;
6095;SDS011;25081;42.698;23.298;2023-02-01T03:56:59;6.83;;;4.33;;
6095;SDS011;25081;42.698;23.298;2023-02-01T03:59:08;6.75;;;4.97;;
6095;SDS011;25081;42.698;23.298;2023-02-01T04:01:18;12.30;;;5.42;;
6095;SDS011;25081;42.698;23.298;2023-02-01T04:03:29;13.22;;;7.50;;
6095;SDS011;25081;42.698;23.298;2023-02-01T04:05:40;9.75;;;6.33;;
6095;SDS011;25081;42.698;23.298;2023-02-01T04:07:51;8.45;;;6.45;;
6095;SDS011;25081;42.698;23.298;2023-02-01T04:10:02;9.10;;;5.30;;
6095;SDS011;25081;42.698;23.298;2023-02-01T04:12:13;7.20;;;5.20;;
6095;SDS011;25081;42.698;23.298;2023-02-01T04:14:23;6.70;;;4.67;;
6095;SDS011;25081;42.698;23.298;2023-02-01T04:16:34;8.38;;;5.65;;
6095;SDS011;25081;42.698;23.298;2023-02-01T04:18:44;12.13;;;7.55;;
6095;SDS011;25081;42.698;23.298;2023-02-01T04:20:55;14.90;;;9.58;;
6095;SDS011;25081;42.698;23.298;2023-02-01T04:23:05;7.85;;;4.90;;
6095;SDS011;25081;42.698;23.298;2023-02-01T04:25:16;12.28;;;4.62;;
6095;SDS011;25081;42.698;23.298;2023-02-01T04:27:26;8.33;;;4.87;;
6095;SDS011;25081;42.698;23.298;2023-02-01T04:29:37;10.70;;;4.65;;
6095;SDS011;25081;42.698;23.298;2023-02-01T04:31:47;18.27;;;6.92;;
6095;SDS011;25081;42.698;23.298;2023-02-01T04:33:58;9.93;;;6.25;;
6095;SDS011;25081;42.698;23.298;2023-02-01T04:36:09;12.58;;;5.92;;
6095;SDS011;25081;42.698;23.298;2023-02-01T04:38:19;8.70;;;6.62;;
6095;SDS011;25081;42.698;23.298;2023-02-01T04:40:30;10.18;;;6.00;;
6095;SDS011;25081;42.698;23.298;2023-02-01T04:42:40;9.35;;;5.50;;
6095;SDS011;25081;42.698;23.298;2023-02-01T04:44:51;11.10;;;5.42;;
6095;SDS011;25081;42.698;23.298;2023-02-01T04:47:01;8.10;;;6.08;;
6095;SDS011;25081;42.698;23.298;2023-02-01T04:49:12;12.15;;;7.20;;
6095;SDS011;25081;42.698;23.298;2023-02-01T04:51:22;8.78;;;6.10;;
6095;SDS011;25081;42.698;23.298;2023-02-01T04:53:33;8.73;;;5.97;;
6095;SDS011;25081;42.698;23.298;2023-02-01T04:55:44;10.98;;;4.67;;
6095;SDS011;25081;42.698;23.298;2023-02-01T04:57:54;7.28;;;4.90;;
6095;SDS011;25081;42.698;23.298;2023-02-01T05:00:06;8.88;;;4.95;;
6095;SDS011;25081;42.698;23.298;2023-02-01T05:02:18;9.70;;;5.75;;
6095;SDS011;25081;42.698;23.298;2023-02-01T05:04:29;9.00;;;5.28;;
6095;SDS011;25081;42.698;23.298;2023-02-01T05:06:39;8.55;;;5.12;;
6095;SDS011;25081;42.698;23.298;2023-02-01T05:08:50;10.43;;;5.90;;
6095;SDS011;25081;42.698;23.298;2023-02-01T05:11:00;9.78;;;4.97;;
6095;SDS011;25081;42.698;23.298;2023-02-01T05:13:11;10.48;;;7.30;;
6095;SDS011;25081;42.698;23.298;2023-02-01T05:15:39;9.30;;;5.95;;
6095;SDS011;25081;42.698;23.298;2023-02-01T05:17:50;11.55;;;5.40;;
6095;SDS011;25081;42.698;23.298;2023-02-01T05:20:00;8.13;;;4.70;;
6095;SDS011;25081;42.698;23.298;2023-02-01T05:22:11;7.80;;;5.33;;
6095;SDS011;25081;42.698;23.298;2023-02-01T05:24:22;10.82;;;5.90;;
6095;SDS011;25081;42.698;23.298;2023-02-01T05:26:32;8.78;;;5.72;;
6095;SDS011;25081;42.698;23.298;2023-02-01T05:28:43;7.72;;;5.65;;
6095;SDS011;25081;42.698;23.298;2023-02-01T05:30:53;14.83;;;7.92;;
6095;SDS011;25081;42.698;23.298;2023-02-01T05:33:04;7.08;;;5.20;;
6095;SDS011;25081;42.698;23.298;2023-02-01T05:35:14;12.10;;;6.22;;
6095;SDS011;25081;42.698;23.298;2023-02-01T05:37:25;11.70;;;8.48;;
6095;SDS011;25081;42.698;23.298;2023-02-01T05:39:35;13.25;;;8.00;;
6095;SDS011;25081;42.698;23.298;2023-02-01T05:41:46;15.80;;;7.75;;
6095;SDS011;25081;42.698;23.298;2023-02-01T05:43:56;16.23;;;7.80;;
6095;SDS011;25081;42.698;23.298;2023-02-01T05:46:07;13.98;;;8.30;;
6095;SDS011;25081;42.698;23.298;2023-02-01T05:48:19;13.40;;;7.85;;
6095;SDS011;25081;42.698;23.298;2023-02-01T05:50:29;17.67;;;8.58;;
6095;SDS011;25081;42.698;23.298;2023-02-01T05:52:39;14.55;;;7.25;;
6095;SDS011;25081;42.698;23.298;2023-02-01T05:54:50;12.75;;;7.78;;
6095;SDS011;25081;42.698;23.298;2023-02-01T05:57:01;8.70;;;5.28;;
6095;SDS011;25081;42.698;23.298;2023-02-01T05:59:12;9.10;;;6.35;;
6095;SDS011;25081;42.698;23.298;2023-02-01T06:01:23;9.70;;;6.25;;
6095;SDS011;25081;42.698;23.298;2023-02-01T06:03:34;11.40;;;6.25;;
6095;SDS011;25081;42.698;23.298;2023-02-01T06:05:44;8.10;;;5.78;;
6095;SDS011;25081;42.698;23.298;2023-02-01T06:07:55;8.05;;;5.50;;
6095;SDS011;25081;42.698;23.298;2023-02-01T06:10:06;7.15;;;6.40;;
6095;SDS011;25081;42.698;23.298;2023-02-01T06:12:17;8.78;;;4.25;;
6095;SDS011;25081;42.698;23.298;2023-02-01T06:14:28;6.70;;;4.58;;
6095;SDS011;25081;42.698;23.298;2023-02-01T06:16:38;7.25;;;4.55;;
6095;SDS011;25081;42.698;23.298;2023-02-01T06:18:49;6.25;;;5.03;;
6095;SDS011;25081;42.698;23.298;2023-02-01T06:20:59;7.70;;;4.60;;
6095;SDS011;25081;42.698;23.298;2023-02-01T06:23:10;12.25;;;5.97;;
6095;SDS011;25081;42.698;23.298;2023-02-01T06:25:21;11.40;;;5.90;;
6095;SDS011;25081;42.698;23.298;2023-02-01T06:27:31;10.10;;;5.05;;
6095;SDS011;25081;42.698;23.298;2023-02-01T06:29:41;10.70;;;5.58;;
6095;SDS011;25081;42.698;23.298;2023-02-01T06:31:52;12.73;;;6.60;;
6095;SDS011;25081;42.698;23.298;2023-02-01T06:34:02;9.70;;;6.35;;
6095;SDS011;25081;42.698;23.298;2023-02-01T06:36:13;8.35;;;5.00;;
6095;SDS011;25081;42.698;23.298;2023-02-01T06:38:24;13.85;;;5.42;;
6095;SDS011;25081;42.698;23.298;2023-02-01T06:40:35;8.35;;;4.95;;
6095;SDS011;25081;42.698;23.298;2023-02-01T06:42:45;8.10;;;4.90;;
6095;SDS011;25081;42.698;23.298;2023-02-01T06:44:55;9.93;;;5.35;;
6095;SDS011;25081;42.698;23.298;2023-02-01T06:47:06;10.90;;;5.55;;
6095;SDS011;25081;42.698;23.298;2023-02-01T06:49:16;7.15;;;5.35;;
6095;SDS011;25081;42.698;23.298;2023-02-01T06:51:27;8.58;;;5.67;;
6095;SDS011;25081;42.698;23.298;2023-02-01T06:53:37;12.10;;;5.37;;
6095;SDS011;25081;42.698;23.298;2023-02-01T06:55:54;9.10;;;5.35;;
6095;SDS011;25081;42.698;23.298;2023-02-01T06:58:04;13.00;;;6.45;;
6095;SDS011;25081;42.698;23.298;2023-02-01T07:00:24;10.58;;;5.33;;
6095;SDS011;25081;42.698;23.298;2023-02-01T07:02:35;8.70;;;4.33;;
6095;SDS011;25081;42.698;23.298;2023-02-01T07:04:45;7.72;;;4.35;;
6095;SDS011;25081;42.698;23.298;2023-02-01T07:06:57;12.15;;;5.83;;
6095;SDS011;25081;42.698;23.298;2023-02-01T07:09:07;17.67;;;8.75;;
6095;SDS011;25081;42.698;23.298;2023-02-01T07:11:18;16.65;;;9.35;;
6095;SDS011;25081;42.698;23.298;2023-02-01T07:13:28;9.10;;;6.03;;
6095;SDS011;25081;42.698;23.298;2023-02-01T07:15:39;9.88;;;5.40;;
6095;SDS011;25081;42.698;23.298;2023-02-01T07:17:49;9.83;;;6.22;;
6095;SDS011;25081;42.698;23.298;2023-02-01T07:20:00;7.95;;;5.00;;
6095;SDS011;25081;42.698;23.298;2023-02-01T07:22:10;8.80;;;5.75;;
6095;SDS011;25081;42.698;23.298;2023-02-01T07:24:21;9.95;;;5.92;;
6095;SDS011;25081;42.698;23.298;2023-02-01T07:26:31;9.53;;;5.83;;
6095;SDS011;25081;42.698;23.298;2023-02-01T07:28:42;9.33;;;5.20;;
6095;SDS011;25081;42.698;23.298;2023-02-01T07:30:52;11.25;;;5.60;;
6095;SDS011;25081;42.698;23.298;2023-02-01T07:33:03;8.13;;;5.80;;
6095;SDS011;25081;42.698;23.298;2023-02-01T07:35:13;9.88;;;5.33;;
6095;SDS011;25081;42.698;23.298;2023-02-01T07:37:24;16.60;;;7.33;;
6095;SDS011;25081;42.698;23.298;2023-02-01T07:39:34;11.63;;;6.50;;
6095;SDS011;25081;42.698;23.298;2023-02-01T07:41:45;13.00;;;6.65;;
6095;SDS011;25081;42.698;23.298;2023-02-01T07:43:55;9.05;;;5.15;;
6095;SDS011;25081;42.698;23.298;2023-02-01T07:46:06;11.12;;;5.12;;
6095;SDS011;25081;42.698;23.298;2023-02-01T07:48:16;9.83;;;5.30;;
6095;SDS011;25081;42.698;23.298;2023-02-01T07:50:27;8.53;;;5.25;;
6095;SDS011;25081;42.698;23.298;2023-02-01T07:52:37;8.78;;;4.97;;
6095;SDS011;25081;42.698;23.298;2023-02-01T07:54:48;8.95;;;4.65;;
6095;SDS011;25081;42.698;23.298;2023-02-01T07:56:58;8.90;;;4.33;;
6095;SDS011;25081;42.698;23.298;2023-02-01T07:59:09;7.67;;;4.22;;
6095;SDS011;25081;42.698;23.298;2023-02-01T08:01:20;8.35;;;4.62;;
6095;SDS011;25081;42.698;23.298;2023-02-01T08:03:30;6.40;;;2.83;;
6095;SDS011;25081;42.698;23.298;2023-02-01T08:05:54;7.10;;;4.22;;
6095;SDS011;25081;42.698;23.298;2023-02-01T08:08:05;6.42;;;3.10;;
6095;SDS011;25081;42.698;23.298;2023-02-01T08:10:17;11.40;;;4.70;;
6095;SDS011;25081;42.698;23.298;2023-02-01T08:12:27;9.83;;;5.40;;
6095;SDS011;25081;42.698;23.298;2023-02-01T08:14:38;8.10;;;4.37;;
6095;SDS011;25081;42.698;23.298;2023-02-01T08:16:48;10.88;;;4.80;;
6095;SDS011;25081;42.698;23.298;2023-02-01T08:18:59;7.20;;;4.20;;
6095;SDS011;25081;42.698;23.298;2023-02-01T08:21:11;6.00;;;3.90;;
6095;SDS011;25081;42.698;23.298;2023-02-01T08:23:20;6.97;;;4.70;;
6095;SDS011;25081;42.698;23.298;2023-02-01T08:25:31;8.18;;;4.30;;
6095;SDS011;25081;42.698;23.298;2023-02-01T08:27:42;9.15;;;4.72;;
6095;SDS011;25081;42.698;23.298;2023-02-01T08:29:52;7.40;;;5.60;;
6095;SDS011;25081;42.698;23.298;2023-02-01T08:32:03;18.98;;;5.75;;
6095;SDS011;25081;42.698;23.298;2023-02-01T08:34:14;17.52;;;4.70;;
6095;SDS011;25081;42.698;23.298;2023-02-01T08:36:25;7.15;;;3.87;;
6095;SDS011;25081;42.698;23.298;2023-02-01T08:38:36;9.25;;;4.40;;
6095;SDS011;25081;42.698;23.298;2023-02-01T08:40:46;6.22;;;3.62;;
6095;SDS011;25081;42.698;23.298;2023-02-01T08:42:56;9.60;;;4.17;;
6095;SDS011;25081;42.698;23.298;2023-02-01T08:45:09;11.12;;;4.60;;
6095;SDS011;25081;42.698;23.298;2023-02-01T08:47:20;6.97;;;4.17;;
6095;SDS011;25081;42.698;23.298;2023-02-01T08:49:31;11.15;;;5.50;;
6095;SDS011;25081;42.698;23.298;2023-02-01T08:51:42;13.35;;;5.70;;
6095;SDS011;25081;42.698;23.298;2023-02-01T08:53:52;10.48;;;4.97;;
6095;SDS011;25081;42.698;23.298;2023-02-01T08:56:04;8.78;;;5.30;;
6095;SDS011;25081;42.698;23.298;2023-02-01T08:58:15;10.20;;;6.42;;
6095;SDS011;25081;42.698;23.298;2023-02-01T09:00:26;14.83;;;6.15;;
6095;SDS011;25081;42.698;23.298;2023-02-01T09:02:37;14.93;;;6.10;;
6095;SDS011;25081;42.698;23.298;2023-02-01T09:04:48;8.08;;;4.25;;
6095;SDS011;25081;42.698;23.298;2023-02-01T09:06:59;9.00;;;4.10;;
6095;SDS011;25081;42.698;23.298;2023-02-01T09:09:09;9.43;;;3.92;;
6095;SDS011;25081;42.698;23.298;2023-02-01T09:11:20;6.28;;;3.55;;
6095;SDS011;25081;42.698;23.298;2023-02-01T09:13:31;6.00;;;3.40;;
6095;SDS011;25081;42.698;23.298;2023-02-01T09:15:42;6.60;;;3.60;;
6095;SDS011;25081;42.698;23.298;2023-02-01T09:17:53;8.20;;;4.03;;
6095;SDS011;25081;42.698;23.298;2023-02-01T09:20:03;13.20;;;3.25;;
6095;SDS011;25081;42.698;23.298;2023-02-01T09:22:15;3.47;;;2.60;;
6095;SDS011;25081;42.698;23.298;2023-02-01T09:24:25;6.72;;;3.33;;
6095;SDS011;25081;42.698;23.298;2023-02-01T09:26:36;16.02;;;5.47;;
6095;SDS011;25081;42.698;23.298;2023-02-01T09:28:47;7.28;;;3.85;;
6095;SDS011;25081;42.698;23.298;2023-02-01T09:30:57;7.78;;;3.10;;
6095;SDS011;25081;42.698;23.298;2023-02-01T09:33:08;6.35;;;3.45;;
6095;SDS011;25081;42.698;23.298;2023-02-01T09:35:18;7.42;;;3.50;;
6095;SDS011;25081;42.698;23.298;2023-02-01T09:37:29;5.55;;;3.20;;
6095;SDS011;25081;42.698;23.298;2023-02-01T09:39:39;7.60;;;3.35;;
6095;SDS011;25081;42.698;23.298;2023-02-01T09:41:54;3.45;;;2.37;;
6095;SDS011;25081;42.698;23.298;2023-02-01T09:44:07;7.03;;;3.42;;
6095;SDS011;25081;42.698;23.298;2023-02-01T09:46:20;6.30;;;3.90;;
6095;SDS011;25081;42.698;23.298;2023-02-01T09:48:31;9.60;;;4.05;;
6095;SDS011;25081;42.698;23.298;2023-02-01T09:50:41;6.80;;;3.20;;
6095;SDS011;25081;42.698;23.298;2023-02-01T09:52:54;5.58;;;2.60;;
6095;SDS011;25081;42.698;23.298;2023-02-01T09:55:03;6.67;;;2.37;;
6095;SDS011;25081;42.698;23.298;2023-02-01T09:57:15;6.63;;;2.90;;
6095;SDS011;25081;42.698;23.298;2023-02-01T09:59:29;6.87;;;3.20;;
6095;SDS011;25081;42.698;23.298;2023-02-01T10:01:39;12.03;;;4.10;;
6095;SDS011;25081;42.698;23.298;2023-02-01T10:03:50;8.13;;;4.00;;
6095;SDS011;25081;42.698;23.298;2023-02-01T10:06:04;8.60;;;4.70;;
6095;SDS011;25081;42.698;23.298;2023-02-01T10:08:36;9.60;;;4.87;;
6095;SDS011;25081;42.698;23.298;2023-02-01T10:10:47;8.67;;;5.13;;
6095;SDS011;25081;42.698;23.298;2023-02-01T10:13:19;6.53;;;3.43;;
6095;SDS011;25081;42.698;23.298;2023-02-01T10:15:37;9.47;;;3.77;;
6095;SDS011;25081;42.698;23.298;2023-02-01T10:18:15;9.83;;;3.57;;
6095;SDS011;25081;42.698;23.298;2023-02-01T10:20:46;5.20;;;3.50;;
6095;SDS011;25081;42.698;23.298;2023-02-01T10:23:00;8.40;;;3.90;;
6095;SDS011;25081;42.698;23.298;2023-02-01T10:25:14;6.97;;;4.67;;
6095;SDS011;25081;42.698;23.298;2023-02-01T10:27:25;9.53;;;4.00;;
6095;SDS011;25081;42.698;23.298;2023-02-01T10:29:36;9.27;;;3.87;;
6095;SDS011;25081;42.698;23.298;2023-02-01T10:31:46;7.33;;;4.17;;
6095;SDS011;25081;42.698;23.298;2023-02-01T10:33:57;5.23;;;3.50;;
6095;SDS011;25081;42.698;23.298;2023-02-01T10:36:10;6.33;;;3.40;;
6095;SDS011;25081;42.698;23.298;2023-02-01T10:38:22;3.67;;;2.90;;
6095;SDS011;25081;42.698;23.298;2023-02-01T10:40:31;8.10;;;4.07;;
6095;SDS011;25081;42.698;23.298;2023-02-01T10:42:42;7.00;;;3.77;;
6095;SDS011;25081;42.698;23.298;2023-02-01T10:44:53;6.97;;;3.50;;
6095;SDS011;25081;42.698;23.298;2023-02-01T10:47:04;6.10;;;2.93;;
6095;SDS011;25081;42.698;23.298;2023-02-01T10:49:18;5.73;;;2.87;;
6095;SDS011;25081;42.698;23.298;2023-02-01T10:51:28;7.00;;;3.70;;
6095;SDS011;25081;42.698;23.298;2023-02-01T10:53:40;7.37;;;3.73;;
6095;SDS011;25081;42.698;23.298;2023-02-01T10:55:50;7.50;;;3.70;;
6095;SDS011;25081;42.698;23.298;2023-02-01T10:58:01;5.23;;;3.63;;
6095;SDS011;25081;42.698;23.298;2023-02-01T11:00:19;7.03;;;3.73;;
6095;SDS011;25081;42.698;23.298;2023-02-01T11:02:31;6.47;;;4.00;;
6095;SDS011;25081;42.698;23.298;2023-02-01T11:04:41;12.13;;;5.30;;
6095;SDS011;25081;42.698;23.298;2023-02-01T11:06:52;7.43;;;4.17;;
6095;SDS011;25081;42.698;23.298;2023-02-01T11:09:11;6.85;;;4.22;;
6095;SDS011;25081;42.698;23.298;2023-02-01T11:11:19;6.70;;;3.77;;
6095;SDS011;25081;42.698;23.298;2023-02-01T11:13:30;7.25;;;4.37;;
6095;SDS011;25081;42.698;23.298;2023-02-01T11:15:42;5.25;;;2.50;;
6095;SDS011;25081;42.698;23.298;2023-02-01T11:17:53;8.33;;;3.00;;
6095;SDS011;25081;42.698;23.298;2023-02-01T11:20:05;5.40;;;2.58;;
6095;SDS011;25081;42.698;23.298;2023-02-01T11:22:15;5.15;;;2.70;;
6095;SDS011;25081;42.698;23.298;2023-02-01T11:24:27;5.12;;;3.35;;
6095;SDS011;25081;42.698;23.298;2023-02-01T11:26:39;7.37;;;3.00;;
6095;SDS011;25081;42.698;23.298;2023-02-01T11:28:52;6.42;;;2.83;;
6095;SDS011;25081;42.698;23.298;2023-02-01T11:31:03;5.83;;;2.77;;
6095;SDS011;25081;42.698;23.298;2023-02-01T11:33:13;8.98;;;3.67;;
6095;SDS011;25081;42.698;23.298;2023-02-01T11:35:24;8.00;;;3.90;;
6095;SDS011;25081;42.698;23.298;2023-02-01T11:37:35;5.42;;;4.08;;
6095;SDS011;25081;42.698;23.298;2023-02-01T11:39:45;6.87;;;4.17;;
6095;SDS011;25081;42.698;23.298;2023-02-01T11:42:03;6.92;;;3.52;;
6095;SDS011;25081;42.698;23.298;2023-02-01T11:44:19;6.22;;;4.00;;
6095;SDS011;25081;42.698;23.298;2023-02-01T11:46:31;4.60;;;3.12;;
6095;SDS011;25081;42.698;23.298;2023-02-01T11:48:40;7.33;;;3.98;;
6095;SDS011;25081;42.698;23.298;2023-02-01T11:50:52;7.03;;;3.75;;
6095;SDS011;25081;42.698;23.298;2023-02-01T11:53:06;6.90;;;3.08;;
6095;SDS011;25081;42.698;23.298;2023-02-01T11:55:27;7.15;;;4.70;;
6095;SDS011;25081;42.698;23.298;2023-02-01T11:57:45;7.97;;;4.25;;
6095;SDS011;25081;42.698;23.298;2023-02-01T12:00:00;4.95;;;2.98;;
6095;SDS011;25081;42.698;23.298;2023-02-01T12:02:29;4.45;;;3.12;;
6095;SDS011;25081;42.698;23.298;2023-02-01T12:04:54;8.50;;;3.83;;
6095;SDS011;25081;42.698;23.298;2023-02-01T12:07:17;10.50;;;3.92;;
6095;SDS011;25081;42.698;23.298;2023-02-01T12:09:31;9.60;;;3.92;;
6095;SDS011;25081;42.698;23.298;2023-02-01T12:11:46;8.48;;;5.00;;
6095;SDS011;25081;42.698;23.298;2023-02-01T12:14:01;5.90;;;4.03;;
6095;SDS011;25081;42.698;23.298;2023-02-01T12:16:17;6.62;;;3.98;;
6095;SDS011;25081;42.698;23.298;2023-02-01T12:18:40;9.83;;;2.98;;
6095;SDS011;25081;42.698;23.298;2023-02-01T12:20:58;5.20;;;3.52;;
6095;SDS011;25081;42.698;23.298;2023-02-01T12:23:24;6.62;;;3.85;;
6095;SDS011;25081;42.698;23.298;2023-02-01T12:25:42;4.30;;;2.47;;
6095;SDS011;25081;42.698;23.298;2023-02-01T12:31:00;5.35;;;2.70;;
6095;SDS011;25081;42.698;23.298;2023-02-01T12:33:14;4.55;;;2.55;;
6095;SDS011;25081;42.698;23.298;2023-02-01T12:38:24;3.47;;;2.30;;
6095;SDS011;25081;42.698;23.298;2023-02-01T12:40:43;4.60;;;2.27;;
6095;SDS011;25081;42.698;23.298;2023-02-01T12:42:56;5.10;;;2.47;;
6095;SDS011;25081;42.698;23.298;2023-02-01T12:45:10;3.90;;;2.60;;
6095;SDS011;25081;42.698;23.298;2023-02-01T12:47:22;4.20;;;2.90;;
6095;SDS011;25081;42.698;23.298;2023-02-01T12:49:35;3.80;;;2.62;;
6095;SDS011;25081;42.698;23.298;2023-02-01T12:51:50;4.70;;;2.52;;
6095;SDS011;25081;42.698;23.298;2023-02-01T12:54:01;6.85;;;3.33;;
6095;SDS011;25081;42.698;23.298;2023-02-01T12:56:12;4.55;;;2.85;;
6095;SDS011;25081;42.698;23.298;2023-02-01T12:58:22;7.47;;;3.50;;
6095;SDS011;25081;42.698;23.298;2023-02-01T13:00:35;4.25;;;2.83;;
6095;SDS011;25081;42.698;23.298;2023-02-01T13:02:47;9.15;;;3.87;;
6095;SDS011;25081;42.698;23.298;2023-02-01T13:04:58;6.20;;;3.65;;
6095;SDS011;25081;42.698;23.298;2023-02-01T13:07:09;5.65;;;3.20;;
6095;SDS011;25081;42.698;23.298;2023-02-01T13:09:20;7.08;;;3.72;;
6095;SDS011;25081;42.698;23.298;2023-02-01T13:11:31;6.47;;;3.00;;
6095;SDS011;25081;42.698;23.298;2023-02-01T13:13:45;5.35;;;3.58;;
6095;SDS011;25081;42.698;23.298;2023-02-01T13:15:57;3.98;;;3.00;;
6095;SDS011;25081;42.698;23.298;2023-02-01T13:18:06;4.00;;;3.05;;
6095;SDS011;25081;42.698;23.298;2023-02-01T13:20:19;4.58;;;2.90;;
6095;SDS011;25081;42.698;23.298;2023-02-01T13:22:31;5.15;;;2.60;;
6095;SDS011;25081;42.698;23.298;2023-02-01T13:24:40;5.90;;;2.37;;
6095;SDS011;25081;42.698;23.298;2023-02-01T13:26:51;3.65;;;2.75;;
6095;SDS011;25081;42.698;23.298;2023-02-01T13:29:03;4.37;;;2.37;;
6095;SDS011;25081;42.698;23.298;2023-02-01T13:31:20;3.37;;;2.08;;
6095;SDS011;25081;42.698;23.298;2023-02-01T13:33:44;3.72;;;2.30;;